Time;durP1;ratioP1;P1;durP2;ratioP2;P2;SDS_P1;SDS_P2;PMS_P1;PMS_P2;Temp;Humidity;BMP_temperature;BMP_pressure;BME280_temperature;BME280_humidity;BME280_pressure;Samples;Min_cycle;Max_cycle;Signal;HPM_P1;HPM_P2
2023/06/16 00:02:12;;;;;;;7.50;5.13;;;;;;;14.41;70.63;100554.00;5082240;28;20208;-71
2023/06/16 00:04:40;;;;;;;6.40;4.80;;;;;;;14.28;71.42;100551.28;5081867;28;20190;-70
2023/06/16 00:07:09;;;;;;;7.37;5.00;;;;;;;14.21;71.83;100550.41;5087519;28;20247;-70
2023/06/16 00:09:38;;;;;;;6.27;4.90;;;;;;;14.29;71.14;100558.41;5084858;28;20255;-71
2023/06/16 00:12:06;;;;;;;6.40;4.97;;;;;;;14.41;68.85;100547.78;5081716;28;20202;-71
2023/06/16 00:14:32;;;;;;;6.87;4.73;;;;;;;14.26;69.87;100553.06;5061726;28;20301;-71
2023/06/16 00:16:59;;;;;;;9.00;4.73;;;;;;;14.16;70.64;100551.28;5069265;28;20201;-70
2023/06/16 00:19:29;;;;;;;9.90;4.40;;;;;;;14.04;71.72;100554.81;5085182;28;20221;-71
2023/06/16 00:21:59;;;;;;;6.30;4.83;;;;;;;13.99;72.24;100548.56;5082046;28;20587;-70
2023/06/16 00:24:26;;;;;;;7.70;4.50;;;;;;;13.90;72.59;100554.78;5081487;28;20280;-71
2023/06/16 00:26:55;;;;;;;8.60;4.80;;;;;;;13.86;73.28;100553.00;5084175;28;20221;-71
2023/06/16 00:29:21;;;;;;;6.23;5.00;;;;;;;13.89;72.23;100555.66;5080189;28;20217;-71
2023/06/16 00:31:48;;;;;;;8.47;4.67;;;;;;;13.86;73.36;100553.00;5084903;28;20284;-71
2023/06/16 00:34:14;;;;;;;7.10;4.57;;;;;;;13.84;73.11;100548.56;5059992;28;20240;-70
2023/06/16 00:36:40;;;;;;;7.97;5.03;;;;;;;13.78;73.64;100550.31;5083156;28;20196;-71
2023/06/16 00:39:07;;;;;;;6.80;4.80;;;;;;;13.73;73.71;100551.19;5080307;28;20252;-71
2023/06/16 00:41:34;;;;;;;10.03;4.87;;;;;;;13.63;74.24;100555.59;5083151;28;20280;-69
2023/06/16 00:44:02;;;;;;;9.47;4.90;;;;;;;13.59;74.74;100556.44;5086650;28;20205;-70
2023/06/16 00:46:31;;;;;;;8.43;5.23;;;;;;;13.51;75.32;100550.22;5088275;28;20208;-71
2023/06/16 00:48:58;;;;;;;6.13;4.80;;;;;;;13.54;77.21;100541.34;5080174;28;20252;-72
2023/06/16 00:51:27;;;;;;;6.47;5.00;;;;;;;13.62;78.16;100552.94;5083408;28;20198;-71
2023/06/16 00:53:54;;;;;;;6.37;5.10;;;;;;;13.56;78.69;100552.88;5082177;28;20697;-72
2023/06/16 00:56:21;;;;;;;7.23;4.83;;;;;;;13.51;79.08;100551.97;5086391;28;20198;-71
2023/06/16 00:58:50;;;;;;;8.87;5.20;;;;;;;13.60;79.25;100549.34;5073279;28;20308;-71
2023/06/16 01:01:17;;;;;;;7.40;4.90;;;;;;;13.80;78.93;100552.97;5084878;28;20276;-71
2023/06/16 01:03:44;;;;;;;8.03;5.20;;;;;;;13.93;79.30;100549.44;5083548;28;20225;-71
2023/06/16 01:06:30;;;;;;;7.47;5.03;;;;;;;13.86;79.41;100550.34;5076907;28;20225;-70
2023/06/16 01:09:09;;;;;;;7.73;4.70;;;;;;;14.03;78.68;100540.63;5066483;28;20221;-71
2023/06/16 01:11:48;;;;;;;6.27;5.17;;;;;;;14.11;77.59;100545.97;5076161;28;20198;-71
2023/06/16 01:14:23;;;;;;;8.03;5.40;;;;;;;13.97;78.38;100545.03;5076265;28;20300;-72
2023/06/16 01:16:51;;;;;;;8.53;5.20;;;;;;;13.90;78.42;100548.56;5079766;28;20213;-71
2023/06/16 01:19:37;;;;;;;7.67;5.10;;;;;;;13.85;78.83;100539.69;5081878;28;20259;-72
2023/06/16 01:22:15;;;;;;;7.73;5.43;;;;;;;13.69;78.83;100550.28;5083036;28;20197;-70
2023/06/16 01:24:43;;;;;;;8.40;5.80;;;;;;;13.52;80.15;100551.09;5077184;28;20640;-73
2023/06/16 01:27:13;;;;;;;7.47;5.13;;;;;;;13.35;81.60;100553.69;5086858;28;20570;-72
2023/06/16 01:29:40;;;;;;;8.53;5.57;;;;;;;13.34;83.64;100552.81;5078136;28;20226;-70
2023/06/16 01:32:09;;;;;;;9.33;5.47;;;;;;;13.44;83.81;100554.63;5071247;28;20196;-70
2023/06/16 01:34:36;;;;;;;7.00;5.70;;;;;;;13.47;84.33;100553.75;5084824;28;20216;-71
2023/06/16 01:37:04;;;;;;;10.23;5.50;;;;;;;13.53;84.88;100553.75;5091895;28;20350;-71
2023/06/16 01:39:32;;;;;;;13.30;6.87;;;;;;;13.45;86.01;100555.50;5080347;28;20224;-72
2023/06/16 01:42:00;;;;;;;9.57;5.93;;;;;;;13.45;86.34;100555.50;5075701;28;20209;-72
2023/06/16 01:44:27;;;;;;;9.77;6.17;;;;;;;13.31;87.38;100549.25;5080459;28;20673;-72
2023/06/16 01:46:55;;;;;;;11.90;6.30;;;;;;;13.25;88.16;100552.78;5085041;28;20662;-72
2023/06/16 01:49:23;;;;;;;8.23;6.43;;;;;;;13.21;89.15;100553.66;5080931;28;20713;-72
2023/06/16 01:51:49;;;;;;;10.03;6.53;;;;;;;13.35;89.65;100556.34;5089021;28;20208;-72
2023/06/16 01:54:16;;;;;;;8.50;6.10;;;;;;;13.29;89.80;100551.91;5083431;28;20218;-71
2023/06/16 01:56:42;;;;;;;10.57;6.97;;;;;;;13.31;90.35;100555.47;5076818;28;20222;-73
2023/06/16 01:59:09;;;;;;;9.07;6.37;;;;;;;13.34;90.56;100551.91;5065926;28;20220;-74
2023/06/16 02:01:42;;;;;;;11.30;6.63;;;;;;;13.24;92.25;100550.09;5078233;28;20663;-72
2023/06/16 02:04:14;;;;;;;8.07;6.00;;;;;;;13.22;93.15;100552.75;5078839;28;20579;-72
2023/06/16 02:07:22;;;;;;;11.47;6.30;;;;;;;13.30;93.04;100558.13;5080906;28;20204;-73
2023/06/16 02:09:50;;;;;;;10.90;6.77;;;;;;;13.35;94.95;100548.38;5000388;28;20925;-72
2023/06/16 02:12:16;;;;;;;11.67;6.47;;;;;;;13.25;95.14;100558.09;5066150;28;20196;-74
2023/06/16 02:14:44;;;;;;;10.23;6.53;;;;;;;13.18;95.69;100553.59;5086338;28;20303;-73
2023/06/16 02:17:12;;;;;;;9.40;6.50;;;;;;;13.11;96.24;100555.31;5080512;28;20623;-73
2023/06/16 02:19:39;;;;;;;10.70;6.53;;;;;;;12.99;96.81;100552.56;5076413;28;20589;-73
2023/06/16 02:22:05;;;;;;;9.43;6.30;;;;;;;12.91;97.88;100548.09;5083356;28;20201;-74
2023/06/16 02:24:33;;;;;;;10.10;6.80;;;;;;;12.85;99.06;100554.28;5081482;28;20186;-74
2023/06/16 02:27:00;;;;;;;11.97;6.60;;;;;;;12.85;98.66;100548.94;5077559;28;20199;-74
2023/06/16 02:29:26;;;;;;;9.17;6.23;;;;;;;12.77;99.00;100548.00;5085255;28;20213;-74
2023/06/16 02:31:53;;;;;;;7.70;6.10;;;;;;;12.74;99.65;100559.47;5081962;28;20195;-73
2023/06/16 02:34:19;;;;;;;9.53;6.60;;;;;;;12.79;99.46;100552.44;5077947;28;20668;-74
2023/06/16 02:36:46;;;;;;;9.20;6.57;;;;;;;12.77;100.00;100566.59;5064661;28;20194;-73
2023/06/16 02:39:13;;;;;;;13.27;7.40;;;;;;;12.78;100.00;100557.75;5078421;28;20221;-75
2023/06/16 02:41:41;;;;;;;9.67;6.80;;;;;;;12.80;100.00;100550.66;5087435;28;20205;-74
2023/06/16 02:44:07;;;;;;;10.87;6.97;;;;;;;12.81;100.00;100555.13;5078386;28;20593;-74
2023/06/16 02:46:33;;;;;;;13.40;8.10;;;;;;;12.84;100.00;100549.84;5082384;28;20217;-75
2023/06/16 02:49:00;;;;;;;13.23;8.07;;;;;;;12.90;100.00;100552.53;5082143;28;20214;-75
2023/06/16 02:51:26;;;;;;;11.53;8.30;;;;;;;12.81;100.00;100555.13;5082112;28;20202;-76
2023/06/16 02:53:53;;;;;;;14.80;7.83;;;;;;;12.75;100.00;100553.28;5079808;28;20229;-74
2023/06/16 02:56:20;;;;;;;14.43;8.07;;;;;;;12.75;100.00;100549.75;5081075;28;20565;-76
2023/06/16 02:58:47;;;;;;;10.20;7.33;;;;;;;12.66;100.00;100555.88;5076073;28;20246;-75
2023/06/16 03:01:14;;;;;;;12.10;8.30;;;;;;;12.64;100.00;100551.44;5084323;28;20260;-75
2023/06/16 03:03:40;;;;;;;11.47;8.03;;;;;;;12.70;100.00;100559.47;5080581;28;20323;-73
2023/06/16 03:06:08;;;;;;;15.30;8.60;;;;;;;12.79;100.00;100544.47;5082434;28;20204;-73
2023/06/16 03:08:35;;;;;;;10.33;8.00;;;;;;;12.77;100.00;100548.88;5074464;28;20225;-74
2023/06/16 03:11:02;;;;;;;11.23;7.53;;;;;;;12.77;100.00;100548.00;5076848;28;20680;-75
2023/06/16 03:13:28;;;;;;;12.57;7.27;;;;;;;12.83;100.00;100548.06;5082247;28;20211;-76
2023/06/16 03:15:56;;;;;;;12.40;7.90;;;;;;;12.89;100.00;100550.75;5079518;28;20276;-75
2023/06/16 03:18:23;;;;;;;12.63;7.57;;;;;;;12.84;100.00;100553.38;5085366;28;20192;-73
2023/06/16 03:20:53;;;;;;;8.47;6.80;;;;;;;12.90;100.00;100547.22;5072051;28;20205;-74
2023/06/16 03:23:20;;;;;;;10.60;6.97;;;;;;;12.83;100.00;100548.94;5084011;28;20226;-74
2023/06/16 03:25:46;;;;;;;11.67;6.53;;;;;;;12.80;100.00;100556.88;5080018;28;20187;-74
2023/06/16 03:28:13;;;;;;;10.13;6.27;;;;;;;12.76;100.00;100554.19;5082538;28;20194;-72
2023/06/16 03:30:40;;;;;;;10.83;6.50;;;;;;;12.86;100.00;100556.94;5077310;28;20198;-71
2023/06/16 03:33:06;;;;;;;11.10;6.53;;;;;;;12.76;100.00;100562.16;5082920;28;20283;-73
2023/06/16 03:35:33;;;;;;;10.53;6.33;;;;;;;12.75;100.00;100566.59;5086713;28;20222;-72
2023/06/16 03:37:59;;;;;;;10.23;7.00;;;;;;;12.82;100.00;100562.22;5083413;28;20284;-71
2023/06/16 03:40:26;;;;;;;8.83;6.10;;;;;;;12.78;100.00;100571.03;5080662;28;20221;-72
2023/06/16 03:42:52;;;;;;;9.93;6.50;;;;;;;12.89;100.00;100564.03;5091823;28;20625;-72
2023/06/16 03:45:19;;;;;;;10.30;6.23;;;;;;;12.98;100.00;100565.88;5085951;28;20205;-72
2023/06/16 03:47:45;;;;;;;7.70;6.17;;;;;;;12.99;100.00;100564.97;5083995;28;20238;-73
2023/06/16 03:50:11;;;;;;;10.60;6.37;;;;;;;13.00;100.00;100565.00;5083176;28;20682;-72
2023/06/16 03:52:38;;;;;;;13.17;7.00;;;;;;;13.02;100.00;100563.22;5083658;28;20206;-73
2023/06/16 03:55:05;;;;;;;9.60;6.37;;;;;;;13.08;100.00;100565.03;5079602;28;20208;-73
2023/06/16 03:57:31;;;;;;;8.70;6.20;;;;;;;13.16;100.00;100573.94;5088081;28;20204;-72
2023/06/16 03:59:58;;;;;;;10.77;6.30;;;;;;;13.15;100.00;100570.38;5086528;28;20217;-72
2023/06/16 04:02:25;;;;;;;8.00;5.97;;;;;;;13.15;100.00;100572.16;5087932;28;20205;-73
2023/06/16 04:04:55;;;;;;;12.50;6.10;;;;;;;13.12;100.00;100573.03;5071312;28;20225;-73
2023/06/16 04:07:22;;;;;;;9.50;5.70;;;;;;;13.15;100.00;100574.81;5079925;28;20665;-73
2023/06/16 04:09:48;;;;;;;9.20;5.80;;;;;;;13.23;100.00;100575.81;5084503;28;20670;-72
2023/06/16 04:12:15;;;;;;;7.50;6.33;;;;;;;13.30;100.00;100577.63;5089887;28;20218;-72
2023/06/16 04:14:41;;;;;;;10.23;6.30;;;;;;;13.36;100.00;100580.31;5087170;28;20226;-72
2023/06/16 04:17:08;;;;;;;11.20;6.37;;;;;;;13.40;100.00;100578.56;5075240;28;20206;-71
2023/06/16 04:19:34;;;;;;;10.17;5.90;;;;;;;13.64;99.99;100585.75;5059870;28;20237;-72
2023/06/16 04:22:01;;;;;;;9.20;6.17;;;;;;;13.75;99.21;100582.25;5084089;28;20693;-72
2023/06/16 04:24:27;;;;;;;10.50;6.10;;;;;;;13.84;98.92;100585.81;5084179;28;20196;-72
2023/06/16 04:26:58;;;;;;;9.57;6.77;;;;;;;13.91;98.85;100575.19;5080869;28;20354;-71
2023/06/16 04:29:27;;;;;;;9.57;5.87;;;;;;;14.19;97.78;100581.47;5087586;28;20215;-71
2023/06/16 04:31:59;;;;;;;9.07;5.90;;;;;;;14.32;96.99;100580.59;5065213;28;20266;-69
2023/06/16 04:34:26;;;;;;;7.97;6.20;;;;;;;14.44;96.32;100578.91;5074417;28;20319;-70
2023/06/16 04:36:57;;;;;;;8.70;6.03;;;;;;;14.54;95.43;100575.34;5086993;28;20209;-70
2023/06/16 04:39:23;;;;;;;8.87;6.27;;;;;;;14.64;94.79;100580.66;5085452;28;20216;-71
2023/06/16 04:41:50;;;;;;;8.30;5.67;;;;;;;14.78;93.00;100579.75;5090908;28;20228;-72
2023/06/16 04:44:16;;;;;;;8.90;6.40;;;;;;;14.90;91.75;100580.66;5092221;28;20224;-69
2023/06/16 04:46:43;;;;;;;8.13;5.93;;;;;;;15.09;90.51;100573.50;5077972;28;20361;-72
2023/06/16 04:49:10;;;;;;;7.47;5.93;;;;;;;15.16;90.34;100577.91;5082000;28;20645;-70
2023/06/16 04:51:36;;;;;;;8.97;5.97;;;;;;;15.23;90.22;100576.16;5084968;28;20197;-71
2023/06/16 04:54:03;;;;;;;11.13;6.13;;;;;;;15.28;89.60;100577.91;5095172;28;20201;-71
2023/06/16 04:56:29;;;;;;;8.67;6.83;;;;;;;15.36;89.20;100581.44;5084060;28;20197;-71
2023/06/16 04:58:55;;;;;;;14.17;6.80;;;;;;;15.44;89.16;100573.41;5083414;28;20263;-69
2023/06/16 05:01:26;;;;;;;11.23;7.27;;;;;;;15.53;88.74;100575.16;5079711;28;20305;-71
2023/06/16 05:03:53;;;;;;;10.23;7.30;;;;;;;15.65;88.54;100572.47;5074356;28;20293;-71
2023/06/16 05:06:19;;;;;;;14.77;8.60;;;;;;;15.69;88.11;100573.34;5086832;28;20739;-71
2023/06/16 05:08:46;;;;;;;12.73;8.47;;;;;;;15.75;88.90;100567.97;5072878;28;20336;-71
2023/06/16 05:11:12;;;;;;;12.30;7.63;;;;;;;15.92;87.69;100568.75;5079415;28;20256;-70
2023/06/16 05:13:39;;;;;;;11.30;7.83;;;;;;;16.05;87.75;100573.16;5086839;28;20733;-70
2023/06/16 05:16:06;;;;;;;13.33;9.33;;;;;;;16.15;87.31;100569.53;5096630;28;20684;-71
2023/06/16 05:18:32;;;;;;;15.07;9.10;;;;;;;16.30;86.80;100569.41;5080617;28;20229;-69
2023/06/16 05:20:59;;;;;;;13.53;9.40;;;;;;;16.36;86.17;100565.81;5080073;28;20264;-73
2023/06/16 05:23:25;;;;;;;15.70;10.00;;;;;;;16.42;86.15;100567.56;5080085;28;20210;-67
2023/06/16 05:25:52;;;;;;;13.67;10.17;;;;;;;16.56;85.26;100569.22;5077181;28;20194;-68
2023/06/16 05:28:18;;;;;;;17.43;10.27;;;;;;;16.77;84.49;100570.84;5074318;28;20704;-68
2023/06/16 05:30:45;;;;;;;11.77;9.70;;;;;;;17.21;82.71;100569.53;5078139;28;20202;-67
2023/06/16 05:33:14;;;;;;;16.00;9.43;;;;;;;18.21;76.38;100574.53;5077721;28;20724;-67
2023/06/16 05:35:41;;;;;;;11.67;8.93;;;;;;;18.23;76.04;100570.03;5075273;28;20233;-68
2023/06/16 05:38:07;;;;;;;16.47;9.33;;;;;;;18.09;76.74;100587.22;5077277;28;20194;-69
2023/06/16 05:40:33;;;;;;;12.97;9.27;;;;;;;17.93;77.67;100580.28;5077606;28;20222;-68
2023/06/16 05:43:00;;;;;;;15.67;9.63;;;;;;;17.88;78.09;100584.81;5078050;28;20243;-69
2023/06/16 05:45:26;;;;;;;14.87;9.77;;;;;;;17.92;78.55;100581.19;5073845;28;20208;-69
2023/06/16 05:47:52;;;;;;;12.87;9.57;;;;;;;18.18;77.15;100586.19;5080975;28;20201;-69
2023/06/16 05:50:19;;;;;;;13.73;8.60;;;;;;;18.41;75.08;100569.75;5077203;28;20249;-69
2023/06/16 05:52:46;;;;;;;13.80;8.57;;;;;;;18.21;75.31;100579.91;5073855;28;20274;-69
2023/06/16 05:55:13;;;;;;;16.03;8.60;;;;;;;18.43;74.07;100584.06;5081042;28;20580;-68
2023/06/16 05:57:40;;;;;;;14.63;8.30;;;;;;;18.69;72.62;100579.16;5058968;28;20217;-69
2023/06/16 06:00:07;;;;;;;11.57;7.67;;;;;;;18.57;72.05;100573.09;5074603;28;20224;-67
2023/06/16 06:02:33;;;;;;;14.90;7.80;;;;;;;18.59;72.31;100579.31;5079312;28;20205;-68
2023/06/16 06:05:00;;;;;;;13.40;8.27;;;;;;;18.55;73.63;100583.84;5075094;28;20185;-67
2023/06/16 06:07:26;;;;;;;17.37;8.37;;;;;;;18.52;73.54;100583.91;5078926;28;20198;-67
2023/06/16 06:09:53;;;;;;;15.23;8.90;;;;;;;18.54;73.70;100594.59;5088800;28;20220;-67
2023/06/16 06:12:19;;;;;;;12.33;8.70;;;;;;;18.61;73.94;100588.22;5075190;28;20205;-67
2023/06/16 06:14:48;;;;;;;12.13;8.30;;;;;;;18.60;74.57;100589.13;5072072;28;20316;-67
2023/06/16 06:17:14;;;;;;;12.53;9.13;;;;;;;18.74;74.52;100597.88;5085733;28;20203;-67
2023/06/16 06:19:40;;;;;;;14.67;8.27;;;;;;;18.91;73.80;100590.44;5082234;28;20244;-66
2023/06/16 06:22:07;;;;;;;13.60;8.63;;;;;;;19.08;73.38;100603.53;5084909;28;20207;-68
2023/06/16 06:24:33;;;;;;;13.37;8.47;;;;;;;19.21;72.58;100602.44;5076089;28;20752;-67
2023/06/16 06:27:00;;;;;;;13.27;8.50;;;;;;;19.47;71.90;100614.47;5082442;28;20202;-67
2023/06/16 06:29:26;;;;;;;17.43;9.40;;;;;;;19.46;71.61;100607.31;5090402;28;20263;-67
2023/06/16 06:31:53;;;;;;;20.07;8.70;;;;;;;19.35;72.16;100616.47;5065914;28;20197;-68
2023/06/16 06:34:19;;;;;;;12.93;8.00;;;;;;;19.44;72.30;100614.53;5073803;28;20304;-67
2023/06/16 06:36:47;;;;;;;15.37;8.10;;;;;;;19.44;71.82;100611.84;5079348;28;20309;-67
2023/06/16 06:39:14;;;;;;;13.17;8.00;;;;;;;19.50;71.60;100617.97;5066401;28;20615;-68
2023/06/16 06:41:40;;;;;;;14.73;7.17;;;;;;;19.52;71.18;100621.50;5072351;28;20572;-67
2023/06/16 06:44:09;;;;;;;7.23;6.37;;;;;;;19.67;70.88;100618.56;5079833;28;20229;-68
2023/06/16 06:46:36;;;;;;;11.20;6.97;;;;;;;19.71;70.66;100628.34;5081249;28;20193;-67
2023/06/16 06:49:02;;;;;;;10.10;6.87;;;;;;;19.83;70.78;100623.63;5075213;28;20218;-68
2023/06/16 06:51:28;;;;;;;9.87;7.00;;;;;;;19.91;70.34;100632.41;5085541;28;20202;-67
2023/06/16 06:53:55;;;;;;;12.77;7.57;;;;;;;20.08;69.58;100637.44;5080658;28;20293;-67
2023/06/16 06:56:22;;;;;;;12.97;6.90;;;;;;;20.27;68.20;100636.09;5080165;28;20702;-67
2023/06/16 06:58:49;;;;;;;11.60;7.53;;;;;;;20.34;67.85;100637.72;5084616;28;20248;-67
2023/06/16 07:01:16;;;;;;;10.37;7.30;;;;;;;20.50;67.26;100641.00;5072890;28;20697;-67
2023/06/16 07:03:42;;;;;;;11.65;7.45;;;;;;;20.70;66.58;100646.78;5082883;28;20197;-67
2023/06/16 07:06:10;;;;;;;14.68;7.75;;;;;;;20.92;65.19;100647.16;5063940;28;20193;-67
2023/06/16 07:08:36;;;;;;;15.20;7.15;;;;;;;21.65;63.00;100639.00;5075635;28;20222;-67
2023/06/16 07:11:02;;;;;;;13.55;7.85;;;;;;;23.84;55.00;100639.97;5072208;28;20209;-67
2023/06/16 07:13:29;;;;;;;11.35;6.57;;;;;;;26.01;43.07;100642.72;5077649;28;20198;-67
2023/06/16 07:15:55;;;;;;;10.55;6.53;;;;;;;27.25;39.19;100634.91;5078723;28;20225;-68
2023/06/16 07:18:22;;;;;;;9.13;5.95;;;;;;;29.31;34.40;100634.31;5089527;28;20235;-67
2023/06/16 07:20:48;;;;;;;11.57;5.85;;;;;;;29.92;32.88;100638.72;5081090;28;20197;-67
2023/06/16 07:23:15;;;;;;;13.73;5.20;;;;;;;30.92;29.75;100644.16;5075769;28;20726;-67
2023/06/16 07:25:41;;;;;;;8.60;5.50;;;;;;;30.77;29.59;100641.44;5077159;28;20298;-68
2023/06/16 07:28:07;;;;;;;8.80;4.43;;;;;;;30.55;28.07;100641.06;5077167;28;20200;-68
2023/06/16 07:30:34;;;;;;;11.50;4.93;;;;;;;31.26;28.34;100638.16;5079797;28;20256;-67
2023/06/16 07:33:00;;;;;;;9.13;4.97;;;;;;;32.22;26.70;100647.81;5082997;28;20205;-68
2023/06/16 07:35:28;;;;;;;9.63;5.18;;;;;;;31.87;26.96;100650.34;5076978;28;20295;-67
2023/06/16 07:37:54;;;;;;;5.65;4.72;;;;;;;32.19;27.27;100648.03;5080926;28;20237;-68
2023/06/16 07:40:21;;;;;;;11.18;4.85;;;;;;;32.13;26.95;100650.34;5077074;28;20232;-68
2023/06/16 07:42:48;;;;;;;8.32;4.75;;;;;;;32.62;25.72;100656.75;5084464;28;20197;-68
2023/06/16 07:45:15;;;;;;;8.25;4.65;;;;;;;32.71;25.29;100652.44;5068481;28;20216;-68
2023/06/16 07:47:41;;;;;;;8.68;4.50;;;;;;;32.36;25.19;100657.78;5080521;28;20228;-68
2023/06/16 07:50:08;;;;;;;8.02;4.50;;;;;;;32.58;25.96;100654.34;5076790;28;20213;-66
2023/06/16 07:52:35;;;;;;;9.93;5.30;;;;;;;32.22;26.04;100653.28;5083340;28;20201;-66
2023/06/16 07:55:01;;;;;;;8.07;5.07;;;;;;;32.13;25.56;100651.22;5074407;28;20201;-66
2023/06/16 07:57:27;;;;;;;8.95;4.60;;;;;;;32.01;25.41;100643.84;5073469;28;20198;-66
2023/06/16 07:59:56;;;;;;;6.78;4.05;;;;;;;32.02;25.56;100643.78;5073391;28;20223;-68
2023/06/16 08:02:23;;;;;;;8.70;4.90;;;;;;;31.95;25.31;100647.03;5084069;28;20216;-68
2023/06/16 08:04:51;;;;;;;6.50;4.57;;;;;;;32.15;25.82;100645.63;5071249;28;20206;-69
2023/06/16 08:07:17;;;;;;;6.65;4.40;;;;;;;31.92;25.49;100641.78;5080813;28;20198;-69
2023/06/16 08:09:43;;;;;;;7.35;4.55;;;;;;;31.75;26.15;100637.53;5085345;28;20219;-70
2023/06/16 08:12:10;;;;;;;5.78;4.85;;;;;;;31.52;26.09;100641.81;5066488;28;20206;-70
2023/06/16 08:14:37;;;;;;;5.70;4.55;;;;;;;31.53;26.82;100629.88;5077567;28;20193;-70
2023/06/16 08:17:03;;;;;;;7.97;4.78;;;;;;;30.90;27.20;100637.91;5081085;28;20225;-70
2023/06/16 08:19:30;;;;;;;9.50;4.68;;;;;;;30.58;27.49;100634.53;5086803;28;20229;-70
2023/06/16 08:21:56;;;;;;;7.07;4.85;;;;;;;30.24;27.93;100633.97;5077230;28;20200;-68
2023/06/16 08:24:23;;;;;;;6.22;4.40;;;;;;;30.08;28.60;100634.09;5088262;28;20298;-68
2023/06/16 08:26:49;;;;;;;11.40;4.18;;;;;;;29.79;29.15;100629.56;5081043;28;20329;-68
2023/06/16 08:29:16;;;;;;;5.38;4.32;;;;;;;29.55;29.78;100634.66;5072544;28;20301;-68
2023/06/16 08:31:42;;;;;;;8.07;4.65;;;;;;;29.26;29.65;100623.66;5081086;28;20645;-68
2023/06/16 08:34:08;;;;;;;5.80;4.68;;;;;;;29.12;30.43;100622.72;5083005;28;20190;-67
2023/06/16 08:36:35;;;;;;;5.18;4.30;;;;;;;28.32;30.58;100640.06;5102323;28;20218;-66
2023/06/16 08:39:01;;;;;;;5.97;3.97;;;;;;;28.04;28.34;100630.69;5075808;28;20236;-68
2023/06/16 08:41:29;;;;;;;8.10;3.90;;;;;;;26.79;28.54;100634.44;5085276;28;20241;-67
2023/06/16 08:43:58;;;;;;;5.28;3.90;;;;;;;26.23;29.32;100629.91;5089785;28;20201;-68
2023/06/16 08:46:25;;;;;;;5.80;4.00;;;;;;;26.05;29.84;100628.06;5091584;28;20645;-68
2023/06/16 08:48:52;;;;;;;6.03;4.05;;;;;;;25.99;30.76;100628.34;5085242;28;20600;-68
2023/06/16 08:51:21;;;;;;;6.65;3.85;;;;;;;26.34;31.33;100629.44;5087336;28;20197;-68
2023/06/16 08:53:52;;;;;;;6.47;3.80;;;;;;;26.41;30.47;100621.84;5088472;28;20209;-68
2023/06/16 08:56:19;;;;;;;5.40;3.80;;;;;;;26.05;30.98;100619.94;5080934;28;20210;-69
2023/06/16 08:58:47;;;;;;;6.18;4.38;;;;;;;26.05;30.32;100622.66;5100010;28;20213;-68
2023/06/16 09:01:17;;;;;;;6.75;3.80;;;;;;;25.76;31.38;100621.28;5096209;28;20227;-68
2023/06/16 09:03:48;;;;;;;6.35;3.97;;;;;;;25.61;31.47;100625.50;5082624;28;20201;-68
2023/06/16 09:06:15;;;;;;;9.82;4.30;;;;;;;25.53;31.16;100626.81;5088141;28;20200;-68
2023/06/16 09:08:41;;;;;;;6.28;4.18;;;;;;;25.54;30.84;100618.59;5081155;28;20586;-67
2023/06/16 09:11:08;;;;;;;6.18;4.05;;;;;;;25.55;30.85;100614.03;5085263;28;20306;-68
2023/06/16 09:13:41;;;;;;;5.95;3.90;;;;;;;25.15;31.24;100606.78;5088416;28;20612;-68
2023/06/16 09:16:09;;;;;;;5.00;3.90;;;;;;;25.35;31.18;100611.34;5093773;28;20244;-68
2023/06/16 09:18:41;;;;;;;8.63;4.13;;;;;;;25.65;30.58;100609.13;5086546;28;20248;-67
2023/06/16 09:21:08;;;;;;;5.45;3.80;;;;;;;25.83;30.99;100611.00;5082066;28;20233;-68
2023/06/16 09:23:35;;;;;;;5.95;4.18;;;;;;;25.94;31.07;100619.53;5068799;28;20228;-68
2023/06/16 09:26:11;;;;;;;5.75;3.70;;;;;;;25.55;31.53;100609.50;5074218;28;20198;-68
2023/06/16 09:28:39;;;;;;;6.70;4.07;;;;;;;25.44;31.63;100608.22;5087007;28;20221;-68
2023/06/16 09:31:07;;;;;;;9.32;4.50;;;;;;;25.45;31.47;100612.72;5082334;28;20222;-68
2023/06/16 09:33:40;;;;;;;5.35;3.90;;;;;;;25.18;32.18;100606.66;5062931;28;20202;-68
2023/06/16 09:36:07;;;;;;;6.32;4.15;;;;;;;25.34;31.99;100602.34;5084429;28;21533;-68
2023/06/16 09:38:38;;;;;;;8.40;4.10;;;;;;;25.41;31.49;100605.66;5086594;28;20216;-68
2023/06/16 09:41:09;;;;;;;4.97;4.10;;;;;;;25.40;32.34;100603.91;5086090;28;20197;-68
2023/06/16 09:43:40;;;;;;;7.55;4.00;;;;;;;25.77;31.79;100598.59;5084180;28;20234;-68
2023/06/16 09:46:14;;;;;;;5.07;3.72;;;;;;;25.52;31.18;100617.78;5074620;28;20194;-68
2023/06/16 09:48:48;;;;;;;6.43;4.60;;;;;;;25.53;31.21;100596.97;5088936;28;20217;-68
2023/06/16 09:51:22;;;;;;;4.72;3.75;;;;;;;25.88;31.32;100601.69;5078794;28;20252;-68
2023/06/16 09:53:51;;;;;;;4.72;3.75;;;;;;;25.76;30.90;100594.13;5088048;28;20193;-68
2023/06/16 09:56:18;;;;;;;5.85;3.72;;;;;;;25.87;30.59;100599.06;5082802;28;20210;-68
2023/06/16 09:58:46;;;;;;;7.07;3.85;;;;;;;25.86;30.20;100600.00;5084127;28;20309;-67
2023/06/16 10:01:14;;;;;;;5.40;4.00;;;;;;;25.79;30.41;100604.84;5072748;28;20194;-68
2023/06/16 10:03:43;;;;;;;5.20;3.67;;;;;;;25.53;31.31;100600.56;5083336;28;20256;-68
2023/06/16 10:06:15;;;;;;;4.80;4.10;;;;;;;26.04;30.66;100587.44;5082246;28;20207;-68
2023/06/16 10:08:42;;;;;;;10.77;4.13;;;;;;;26.16;30.17;100586.84;5075537;28;20214;-68
2023/06/16 10:11:11;;;;;;;4.32;3.72;;;;;;;26.28;30.27;100586.25;5074150;28;20197;-67
2023/06/16 10:13:40;;;;;;;5.18;3.72;;;;;;;26.50;29.38;100589.72;5092781;28;20201;-67
2023/06/16 10:16:11;;;;;;;8.43;4.07;;;;;;;26.18;28.90;100583.09;5078774;28;20226;-68
2023/06/16 10:18:41;;;;;;;5.55;4.28;;;;;;;26.18;28.91;100583.09;5080323;28;20214;-67
2023/06/16 10:21:10;;;;;;;4.70;3.50;;;;;;;26.18;28.97;100585.81;5060543;28;20240;-68
2023/06/16 10:23:36;;;;;;;4.28;3.88;;;;;;;26.48;28.44;100578.06;5084893;28;20222;-68
2023/06/16 10:26:05;;;;;;;4.25;3.67;;;;;;;26.54;29.01;100587.72;5080098;28;20563;-68
2023/06/16 10:28:35;;;;;;;5.30;4.00;;;;;;;26.69;27.65;100589.66;5080904;28;20672;-68
2023/06/16 10:31:04;;;;;;;5.82;3.85;;;;;;;26.75;27.65;100585.75;5078313;28;20201;-68
2023/06/16 10:33:51;;;;;;;5.53;3.63;;;;;;;26.97;27.76;100566.53;5082058;28;20197;-68
2023/06/16 10:36:22;;;;;;;6.00;3.80;;;;;;;27.03;27.44;100578.00;5080192;28;20247;-68
2023/06/16 10:38:55;;;;;;;5.43;3.95;;;;;;;26.69;27.39;100588.78;5081029;28;20225;-68
2023/06/16 10:41:22;;;;;;;4.22;3.42;;;;;;;27.15;27.66;100585.50;5082480;28;20204;-68
2023/06/16 10:43:48;;;;;;;4.47;3.67;;;;;;;27.41;27.13;100561.50;5080231;28;20198;-71
2023/06/16 10:46:16;;;;;;;4.65;3.60;;;;;;;27.06;27.54;100583.28;5079053;28;20280;-68
2023/06/16 10:49:04;;;;;;;8.18;4.25;;;;;;;26.77;27.98;100571.13;5077767;28;20324;-66
2023/06/16 10:51:48;;;;;;;6.00;4.20;;;;;;;26.62;27.70;100569.22;5077902;28;20217;-65
2023/06/16 10:54:36;;;;;;;5.55;4.10;;;;;;;26.13;28.12;100563.44;5079331;28;20506;-65
2023/06/16 10:57:07;;;;;;;7.75;3.90;;;;;;;26.35;28.17;100560.56;5074712;28;20217;-65
2023/06/16 11:00:11;;;;;;;5.72;4.03;;;;;;;26.38;27.79;100565.84;5078856;28;20214;-65
2023/06/16 11:02:48;;;;;;;5.57;3.78;;;;;;;26.30;27.69;100568.03;5074967;28;20193;-64
2023/06/16 11:05:16;;;;;;;5.45;3.75;;;;;;;26.57;28.04;100564.97;5093174;28;20238;-65
2023/06/16 11:08:01;;;;;;;5.18;3.97;;;;;;;27.04;26.32;100554.41;5072754;28;20670;-65
2023/06/16 11:10:27;;;;;;;5.38;4.10;;;;;;;27.17;27.22;100550.97;5070927;28;20672;-66
2023/06/16 11:12:54;;;;;;;4.93;3.67;;;;;;;27.24;25.99;100562.44;5078632;28;20224;-65
2023/06/16 11:15:20;;;;;;;5.35;3.60;;;;;;;27.31;25.98;100550.25;5083170;28;20559;-66
2023/06/16 11:17:51;;;;;;;5.40;3.95;;;;;;;27.55;25.96;100553.47;5085402;28;20213;-66
2023/06/16 11:20:18;;;;;;;7.82;4.00;;;;;;;27.30;27.22;100555.78;5101768;22;20241;-64
2023/06/16 11:22:45;;;;;;;4.80;4.20;;;;;;;27.32;27.01;100545.69;5093339;28;20193;-64
2023/06/16 11:25:12;;;;;;;5.93;3.78;;;;;;;27.84;26.67;100551.03;5082292;28;20673;-65
2023/06/16 11:27:39;;;;;;;5.70;4.13;;;;;;;28.03;26.70;100549.06;5079340;28;20223;-65